sensor_id;sensor_type;location;lat;lon;timestamp;temperature;humidity
15906;DHT22;8051;50.820;4.884;2023-08-12T00:00:09;20.60;99.90
15906;DHT22;8051;50.820;4.884;2023-08-12T00:02:38;20.60;99.90
15906;DHT22;8051;50.820;4.884;2023-08-12T00:05:06;20.60;99.90
15906;DHT22;8051;50.820;4.884;2023-08-12T00:07:36;20.60;99.90
15906;DHT22;8051;50.820;4.884;2023-08-12T00:10:05;20.60;99.90
15906;DHT22;8051;50.820;4.884;2023-08-12T00:12:33;20.60;99.90
15906;DHT22;8051;50.820;4.884;2023-08-12T00:15:01;20.60;99.90
15906;DHT22;8051;50.820;4.884;2023-08-12T00:17:30;20.60;99.90
15906;DHT22;8051;50.820;4.884;2023-08-12T00:19:57;20.40;99.90
15906;DHT22;8051;50.820;4.884;2023-08-12T00:22:25;20.40;99.90
15906;DHT22;8051;50.820;4.884;2023-08-12T00:24:52;20.20;99.90
15906;DHT22;8051;50.820;4.884;2023-08-12T00:27:20;20.10;99.90
15906;DHT22;8051;50.820;4.884;2023-08-12T00:29:48;20.10;99.90
15906;DHT22;8051;50.820;4.884;2023-08-12T00:32:15;20.00;99.90
15906;DHT22;8051;50.820;4.884;2023-08-12T00:34:44;19.80;99.90
15906;DHT22;8051;50.820;4.884;2023-08-12T00:37:11;19.80;99.90
15906;DHT22;8051;50.820;4.884;2023-08-12T00:39:39;19.90;99.90
15906;DHT22;8051;50.820;4.884;2023-08-12T00:42:06;19.80;99.90
15906;DHT22;8051;50.820;4.884;2023-08-12T00:44:34;19.80;99.90
15906;DHT22;8051;50.820;4.884;2023-08-12T00:47:01;19.80;99.90
15906;DHT22;8051;50.820;4.884;2023-08-12T00:49:30;19.90;99.90
15906;DHT22;8051;50.820;4.884;2023-08-12T00:52:00;20.00;99.90
15906;DHT22;8051;50.820;4.884;2023-08-12T00:54:28;20.00;99.90
15906;DHT22;8051;50.820;4.884;2023-08-12T00:56:56;20.10;99.90
15906;DHT22;8051;50.820;4.884;2023-08-12T00:59:24;20.20;99.90
15906;DHT22;8051;50.820;4.884;2023-08-12T01:01:52;20.20;99.90
15906;DHT22;8051;50.820;4.884;2023-08-12T01:04:20;20.30;99.90
15906;DHT22;8051;50.820;4.884;2023-08-12T01:06:47;20.30;99.90
15906;DHT22;8051;50.820;4.884;2023-08-12T01:09:16;20.30;99.90
15906;DHT22;8051;50.820;4.884;2023-08-12T01:11:49;20.30;99.90
15906;DHT22;8051;50.820;4.884;2023-08-12T01:14:22;20.30;99.90
15906;DHT22;8051;50.820;4.884;2023-08-12T01:16:54;20.30;99.90
15906;DHT22;8051;50.820;4.884;2023-08-12T01:19:30;20.30;99.90
15906;DHT22;8051;50.820;4.884;2023-08-12T01:22:01;20.30;99.90
15906;DHT22;8051;50.820;4.884;2023-08-12T01:24:35;20.20;99.90
15906;DHT22;8051;50.820;4.884;2023-08-12T01:27:04;20.20;99.90
15906;DHT22;8051;50.820;4.884;2023-08-12T01:29:32;20.30;99.90
15906;DHT22;8051;50.820;4.884;2023-08-12T01:32:07;20.30;99.90
15906;DHT22;8051;50.820;4.884;2023-08-12T01:34:42;20.30;99.90
15906;DHT22;8051;50.820;4.884;2023-08-12T01:37:12;20.40;99.90
15906;DHT22;8051;50.820;4.884;2023-08-12T01:39:43;20.30;99.90
15906;DHT22;8051;50.820;4.884;2023-08-12T01:42:12;20.30;99.90
15906;DHT22;8051;50.820;4.884;2023-08-12T01:44:40;20.20;99.90
15906;DHT22;8051;50.820;4.884;2023-08-12T01:47:08;20.20;99.90
15906;DHT22;8051;50.820;4.884;2023-08-12T01:49:36;20.10;99.90
15906;DHT22;8051;50.820;4.884;2023-08-12T01:52:04;20.10;99.90
15906;DHT22;8051;50.820;4.884;2023-08-12T01:54:32;20.20;99.90
15906;DHT22;8051;50.820;4.884;2023-08-12T01:57:03;20.20;99.90
15906;DHT22;8051;50.820;4.884;2023-08-12T01:59:32;20.20;99.90
15906;DHT22;8051;50.820;4.884;2023-08-12T02:01:59;20.20;99.90
15906;DHT22;8051;50.820;4.884;2023-08-12T02:04:27;20.30;99.90
15906;DHT22;8051;50.820;4.884;2023-08-12T02:06:54;20.30;99.90
15906;DHT22;8051;50.820;4.884;2023-08-12T02:09:22;20.30;99.90
15906;DHT22;8051;50.820;4.884;2023-08-12T02:11:50;20.30;99.90
15906;DHT22;8051;50.820;4.884;2023-08-12T02:14:19;20.30;99.90
15906;DHT22;8051;50.820;4.884;2023-08-12T02:16:46;20.30;99.90
15906;DHT22;8051;50.820;4.884;2023-08-12T02:19:14;20.30;99.90
15906;DHT22;8051;50.820;4.884;2023-08-12T02:21:42;20.30;99.90
15906;DHT22;8051;50.820;4.884;2023-08-12T02:24:09;20.30;99.90
15906;DHT22;8051;50.820;4.884;2023-08-12T02:26:38;20.30;99.90
15906;DHT22;8051;50.820;4.884;2023-08-12T02:29:05;20.30;99.90
15906;DHT22;8051;50.820;4.884;2023-08-12T02:31:34;20.30;99.90
15906;DHT22;8051;50.820;4.884;2023-08-12T02:34:02;20.30;99.90
15906;DHT22;8051;50.820;4.884;2023-08-12T02:36:29;20.30;99.90
15906;DHT22;8051;50.820;4.884;2023-08-12T02:38:57;20.30;99.90
15906;DHT22;8051;50.820;4.884;2023-08-12T02:41:25;20.30;99.90
15906;DHT22;8051;50.820;4.884;2023-08-12T02:43:52;20.30;99.90
15906;DHT22;8051;50.820;4.884;2023-08-12T02:46:20;20.20;99.90
15906;DHT22;8051;50.820;4.884;2023-08-12T02:48:49;20.30;99.90
15906;DHT22;8051;50.820;4.884;2023-08-12T02:51:16;20.20;99.90
15906;DHT22;8051;50.820;4.884;2023-08-12T02:53:43;20.20;99.90
15906;DHT22;8051;50.820;4.884;2023-08-12T02:56:10;20.20;99.90
15906;DHT22;8051;50.820;4.884;2023-08-12T02:58:38;20.20;99.90
15906;DHT22;8051;50.820;4.884;2023-08-12T03:01:05;20.20;99.90
15906;DHT22;8051;50.820;4.884;2023-08-12T03:03:33;20.20;99.90
15906;DHT22;8051;50.820;4.884;2023-08-12T03:06:02;20.20;99.90
15906;DHT22;8051;50.820;4.884;2023-08-12T03:08:30;20.20;99.90
15906;DHT22;8051;50.820;4.884;2023-08-12T03:10:59;20.20;99.90
15906;DHT22;8051;50.820;4.884;2023-08-12T03:13:26;20.20;99.90
15906;DHT22;8051;50.820;4.884;2023-08-12T03:15:54;20.20;99.90
15906;DHT22;8051;50.820;4.884;2023-08-12T03:18:21;20.20;99.90
15906;DHT22;8051;50.820;4.884;2023-08-12T03:20:49;20.10;99.90
15906;DHT22;8051;50.820;4.884;2023-08-12T03:23:18;20.00;99.90
15906;DHT22;8051;50.820;4.884;2023-08-12T03:25:47;20.00;99.90
15906;DHT22;8051;50.820;4.884;2023-08-12T03:28:15;19.90;99.90
15906;DHT22;8051;50.820;4.884;2023-08-12T03:30:49;19.90;99.90
15906;DHT22;8051;50.820;4.884;2023-08-12T03:33:17;19.90;99.90
15906;DHT22;8051;50.820;4.884;2023-08-12T03:35:45;19.80;99.90
15906;DHT22;8051;50.820;4.884;2023-08-12T03:38:13;19.80;99.90
15906;DHT22;8051;50.820;4.884;2023-08-12T03:40:42;19.80;99.90
15906;DHT22;8051;50.820;4.884;2023-08-12T03:43:09;19.80;99.90
15906;DHT22;8051;50.820;4.884;2023-08-12T03:45:40;19.80;99.90
15906;DHT22;8051;50.820;4.884;2023-08-12T03:48:08;19.70;99.90
15906;DHT22;8051;50.820;4.884;2023-08-12T03:50:37;19.70;99.90
15906;DHT22;8051;50.820;4.884;2023-08-12T03:53:05;19.70;99.90
15906;DHT22;8051;50.820;4.884;2023-08-12T03:55:34;19.60;99.90
15906;DHT22;8051;50.820;4.884;2023-08-12T03:58:03;19.70;99.90
15906;DHT22;8051;50.820;4.884;2023-08-12T04:00:31;19.70;99.90
15906;DHT22;8051;50.820;4.884;2023-08-12T04:02:58;19.70;99.90
15906;DHT22;8051;50.820;4.884;2023-08-12T04:05:26;19.70;99.90
15906;DHT22;8051;50.820;4.884;2023-08-12T04:07:53;19.60;99.90
15906;DHT22;8051;50.820;4.884;2023-08-12T04:10:21;19.70;99.90
15906;DHT22;8051;50.820;4.884;2023-08-12T04:12:48;19.70;99.90
15906;DHT22;8051;50.820;4.884;2023-08-12T04:15:17;19.70;99.90
15906;DHT22;8051;50.820;4.884;2023-08-12T04:17:45;19.70;99.90
15906;DHT22;8051;50.820;4.884;2023-08-12T04:20:12;19.70;99.90
15906;DHT22;8051;50.820;4.884;2023-08-12T04:22:40;19.70;99.90
15906;DHT22;8051;50.820;4.884;2023-08-12T04:25:08;19.70;99.90
15906;DHT22;8051;50.820;4.884;2023-08-12T04:27:35;19.70;99.90
15906;DHT22;8051;50.820;4.884;2023-08-12T04:30:03;19.70;99.90
15906;DHT22;8051;50.820;4.884;2023-08-12T04:32:32;19.70;99.90
15906;DHT22;8051;50.820;4.884;2023-08-12T04:35:00;19.70;99.90
15906;DHT22;8051;50.820;4.884;2023-08-12T04:37:27;19.70;99.90
15906;DHT22;8051;50.820;4.884;2023-08-12T04:39:55;19.70;99.90
15906;DHT22;8051;50.820;4.884;2023-08-12T04:42:22;19.70;99.90
15906;DHT22;8051;50.820;4.884;2023-08-12T04:44:50;19.70;99.90
15906;DHT22;8051;50.820;4.884;2023-08-12T04:47:17;19.70;99.90
15906;DHT22;8051;50.820;4.884;2023-08-12T04:49:46;19.70;99.90
15906;DHT22;8051;50.820;4.884;2023-08-12T04:52:14;19.70;99.90
15906;DHT22;8051;50.820;4.884;2023-08-12T04:54:41;19.60;99.90
15906;DHT22;8051;50.820;4.884;2023-08-12T04:57:08;19.60;99.90
15906;DHT22;8051;50.820;4.884;2023-08-12T04:59:36;19.60;99.90
15906;DHT22;8051;50.820;4.884;2023-08-12T05:02:03;19.60;99.90
15906;DHT22;8051;50.820;4.884;2023-08-12T05:04:31;19.60;99.90
15906;DHT22;8051;50.820;4.884;2023-08-12T05:07:00;19.60;99.90
15906;DHT22;8051;50.820;4.884;2023-08-12T05:09:27;19.60;99.90
15906;DHT22;8051;50.820;4.884;2023-08-12T05:11:55;19.50;99.90
15906;DHT22;8051;50.820;4.884;2023-08-12T05:14:23;19.60;99.90
15906;DHT22;8051;50.820;4.884;2023-08-12T05:16:50;19.60;99.90
15906;DHT22;8051;50.820;4.884;2023-08-12T05:19:18;19.50;99.90
15906;DHT22;8051;50.820;4.884;2023-08-12T05:21:45;19.50;99.90
15906;DHT22;8051;50.820;4.884;2023-08-12T05:24:14;19.50;99.90
15906;DHT22;8051;50.820;4.884;2023-08-12T05:26:41;19.50;99.90
15906;DHT22;8051;50.820;4.884;2023-08-12T05:29:08;19.60;99.90
15906;DHT22;8051;50.820;4.884;2023-08-12T05:31:36;19.60;99.90
15906;DHT22;8051;50.820;4.884;2023-08-12T05:34:04;19.70;99.90
15906;DHT22;8051;50.820;4.884;2023-08-12T05:36:31;19.80;99.90
15906;DHT22;8051;50.820;4.884;2023-08-12T05:38:59;19.80;99.90
15906;DHT22;8051;50.820;4.884;2023-08-12T05:41:28;19.80;99.90
15906;DHT22;8051;50.820;4.884;2023-08-12T05:43:55;19.90;99.90
15906;DHT22;8051;50.820;4.884;2023-08-12T05:46:23;19.90;99.90
15906;DHT22;8051;50.820;4.884;2023-08-12T05:48:50;19.90;99.90
15906;DHT22;8051;50.820;4.884;2023-08-12T05:51:18;19.90;99.90
15906;DHT22;8051;50.820;4.884;2023-08-12T05:53:45;20.00;99.90
15906;DHT22;8051;50.820;4.884;2023-08-12T05:56:13;20.00;99.90
15906;DHT22;8051;50.820;4.884;2023-08-12T05:58:42;20.10;99.90
15906;DHT22;8051;50.820;4.884;2023-08-12T06:01:09;20.10;99.90
15906;DHT22;8051;50.820;4.884;2023-08-12T06:03:37;20.20;99.90
15906;DHT22;8051;50.820;4.884;2023-08-12T06:06:04;20.10;99.90
15906;DHT22;8051;50.820;4.884;2023-08-12T06:08:32;20.10;99.90
15906;DHT22;8051;50.820;4.884;2023-08-12T06:10:59;20.10;99.90
15906;DHT22;8051;50.820;4.884;2023-08-12T06:13:27;20.20;99.90
15906;DHT22;8051;50.820;4.884;2023-08-12T06:15:56;20.20;99.90
15906;DHT22;8051;50.820;4.884;2023-08-12T06:18:23;20.20;99.90
15906;DHT22;8051;50.820;4.884;2023-08-12T06:20:51;20.30;99.90
15906;DHT22;8051;50.820;4.884;2023-08-12T06:23:18;20.30;99.90
15906;DHT22;8051;50.820;4.884;2023-08-12T06:25:46;20.30;99.90
15906;DHT22;8051;50.820;4.884;2023-08-12T06:28:13;20.40;99.90
15906;DHT22;8051;50.820;4.884;2023-08-12T06:30:44;20.40;99.90
15906;DHT22;8051;50.820;4.884;2023-08-12T06:33:15;20.30;99.90
15906;DHT22;8051;50.820;4.884;2023-08-12T06:35:42;20.30;99.90
15906;DHT22;8051;50.820;4.884;2023-08-12T06:38:11;20.40;99.90
15906;DHT22;8051;50.820;4.884;2023-08-12T06:40:39;20.40;99.90
15906;DHT22;8051;50.820;4.884;2023-08-12T06:43:06;20.40;99.90
15906;DHT22;8051;50.820;4.884;2023-08-12T06:45:34;20.40;99.90
15906;DHT22;8051;50.820;4.884;2023-08-12T06:48:02;20.50;99.90
15906;DHT22;8051;50.820;4.884;2023-08-12T06:50:31;20.60;99.90
15906;DHT22;8051;50.820;4.884;2023-08-12T06:52:59;20.60;99.90
15906;DHT22;8051;50.820;4.884;2023-08-12T06:55:26;20.70;99.90
15906;DHT22;8051;50.820;4.884;2023-08-12T06:57:54;20.70;99.90
15906;DHT22;8051;50.820;4.884;2023-08-12T07:00:21;20.60;99.90
15906;DHT22;8051;50.820;4.884;2023-08-12T07:02:49;20.70;99.90
15906;DHT22;8051;50.820;4.884;2023-08-12T07:05:16;20.80;99.90
15906;DHT22;8051;50.820;4.884;2023-08-12T07:07:45;20.90;99.90
15906;DHT22;8051;50.820;4.884;2023-08-12T07:10:13;20.90;99.90
15906;DHT22;8051;50.820;4.884;2023-08-12T07:12:40;21.00;99.90
15906;DHT22;8051;50.820;4.884;2023-08-12T07:15:08;21.00;99.90
15906;DHT22;8051;50.820;4.884;2023-08-12T07:17:37;21.00;99.90
15906;DHT22;8051;50.820;4.884;2023-08-12T07:20:06;20.90;99.90
15906;DHT22;8051;50.820;4.884;2023-08-12T07:22:36;20.80;99.90
15906;DHT22;8051;50.820;4.884;2023-08-12T07:25:05;20.80;99.90
15906;DHT22;8051;50.820;4.884;2023-08-12T07:27:33;20.80;99.90
15906;DHT22;8051;50.820;4.884;2023-08-12T07:30:01;20.90;99.90
15906;DHT22;8051;50.820;4.884;2023-08-12T07:32:28;21.00;99.90
15906;DHT22;8051;50.820;4.884;2023-08-12T07:34:56;21.10;99.90
15906;DHT22;8051;50.820;4.884;2023-08-12T07:37:23;21.20;99.90
15906;DHT22;8051;50.820;4.884;2023-08-12T07:39:50;21.20;99.90
15906;DHT22;8051;50.820;4.884;2023-08-12T07:42:19;21.20;99.90
15906;DHT22;8051;50.820;4.884;2023-08-12T07:44:47;21.30;99.90
15906;DHT22;8051;50.820;4.884;2023-08-12T07:47:14;21.40;99.90
15906;DHT22;8051;50.820;4.884;2023-08-12T07:49:42;21.50;99.90
15906;DHT22;8051;50.820;4.884;2023-08-12T07:52:10;21.50;99.90
15906;DHT22;8051;50.820;4.884;2023-08-12T07:54:37;21.60;99.90
15906;DHT22;8051;50.820;4.884;2023-08-12T07:57:04;21.70;99.90
15906;DHT22;8051;50.820;4.884;2023-08-12T07:59:33;21.80;99.90
15906;DHT22;8051;50.820;4.884;2023-08-12T08:02:01;21.80;99.90
15906;DHT22;8051;50.820;4.884;2023-08-12T08:04:29;21.70;99.90
15906;DHT22;8051;50.820;4.884;2023-08-12T08:06:56;21.70;99.90
15906;DHT22;8051;50.820;4.884;2023-08-12T08:09:24;21.80;99.90
15906;DHT22;8051;50.820;4.884;2023-08-12T08:11:51;21.80;99.90
15906;DHT22;8051;50.820;4.884;2023-08-12T08:14:19;21.80;99.90
15906;DHT22;8051;50.820;4.884;2023-08-12T08:16:48;21.70;99.90
15906;DHT22;8051;50.820;4.884;2023-08-12T08:19:15;21.60;99.90
15906;DHT22;8051;50.820;4.884;2023-08-12T08:21:42;21.50;99.90
15906;DHT22;8051;50.820;4.884;2023-08-12T08:24:10;21.50;99.90
15906;DHT22;8051;50.820;4.884;2023-08-12T08:26:38;21.60;99.90
15906;DHT22;8051;50.820;4.884;2023-08-12T08:29:06;21.80;99.90
15906;DHT22;8051;50.820;4.884;2023-08-12T08:31:34;22.00;99.90
15906;DHT22;8051;50.820;4.884;2023-08-12T08:34:04;22.10;99.90
15906;DHT22;8051;50.820;4.884;2023-08-12T08:36:31;22.00;99.90
15906;DHT22;8051;50.820;4.884;2023-08-12T08:38:58;21.80;99.90
15906;DHT22;8051;50.820;4.884;2023-08-12T08:41:27;21.60;99.90
15906;DHT22;8051;50.820;4.884;2023-08-12T08:43:59;20.90;99.90
15906;DHT22;8051;50.820;4.884;2023-08-12T08:46:29;20.30;99.90
15906;DHT22;8051;50.820;4.884;2023-08-12T08:48:59;19.80;99.90
15906;DHT22;8051;50.820;4.884;2023-08-12T08:51:29;19.70;99.90
15906;DHT22;8051;50.820;4.884;2023-08-12T08:53:58;19.70;99.90
15906;DHT22;8051;50.820;4.884;2023-08-12T08:56:25;19.60;99.90
15906;DHT22;8051;50.820;4.884;2023-08-12T08:58:53;19.60;99.90
15906;DHT22;8051;50.820;4.884;2023-08-12T09:01:21;19.40;99.90
15906;DHT22;8051;50.820;4.884;2023-08-12T09:03:51;19.40;99.90
15906;DHT22;8051;50.820;4.884;2023-08-12T09:06:20;19.60;99.90
15906;DHT22;8051;50.820;4.884;2023-08-12T09:08:51;19.80;99.90
15906;DHT22;8051;50.820;4.884;2023-08-12T09:11:20;19.80;99.90
15906;DHT22;8051;50.820;4.884;2023-08-12T09:13:47;19.70;99.90
15906;DHT22;8051;50.820;4.884;2023-08-12T09:16:15;19.80;99.90
15906;DHT22;8051;50.820;4.884;2023-08-12T09:18:43;20.10;99.90
15906;DHT22;8051;50.820;4.884;2023-08-12T09:21:11;20.40;99.90
15906;DHT22;8051;50.820;4.884;2023-08-12T09:23:39;20.60;99.90
15906;DHT22;8051;50.820;4.884;2023-08-12T09:26:19;20.80;99.90
15906;DHT22;8051;50.820;4.884;2023-08-12T09:28:48;21.00;99.90
15906;DHT22;8051;50.820;4.884;2023-08-12T09:31:22;20.90;99.90
15906;DHT22;8051;50.820;4.884;2023-08-12T09:33:51;21.00;99.90
15906;DHT22;8051;50.820;4.884;2023-08-12T09:36:21;21.10;99.90
15906;DHT22;8051;50.820;4.884;2023-08-12T09:38:48;21.30;99.90
15906;DHT22;8051;50.820;4.884;2023-08-12T09:41:17;21.50;99.90
15906;DHT22;8051;50.820;4.884;2023-08-12T09:43:44;21.60;99.90
15906;DHT22;8051;50.820;4.884;2023-08-12T09:46:13;21.40;99.90
15906;DHT22;8051;50.820;4.884;2023-08-12T09:48:41;21.30;99.90
15906;DHT22;8051;50.820;4.884;2023-08-12T09:51:09;21.20;99.90
15906;DHT22;8051;50.820;4.884;2023-08-12T09:53:36;21.40;99.90
15906;DHT22;8051;50.820;4.884;2023-08-12T09:56:06;21.40;99.90
15906;DHT22;8051;50.820;4.884;2023-08-12T09:58:37;21.30;99.90
15906;DHT22;8051;50.820;4.884;2023-08-12T10:01:06;21.40;99.90
15906;DHT22;8051;50.820;4.884;2023-08-12T10:03:34;21.10;99.90
15906;DHT22;8051;50.820;4.884;2023-08-12T10:06:01;20.80;99.90
15906;DHT22;8051;50.820;4.884;2023-08-12T10:08:29;20.70;99.90
15906;DHT22;8051;50.820;4.884;2023-08-12T10:10:57;20.60;99.90
15906;DHT22;8051;50.820;4.884;2023-08-12T10:13:24;20.40;99.90
15906;DHT22;8051;50.820;4.884;2023-08-12T10:15:53;20.40;99.90
15906;DHT22;8051;50.820;4.884;2023-08-12T10:18:22;20.60;99.90
15906;DHT22;8051;50.820;4.884;2023-08-12T10:20:51;20.70;99.90
15906;DHT22;8051;50.820;4.884;2023-08-12T10:23:21;21.20;99.90
15906;DHT22;8051;50.820;4.884;2023-08-12T10:25:49;21.50;99.90
15906;DHT22;8051;50.820;4.884;2023-08-12T10:28:20;21.60;99.90
15906;DHT22;8051;50.820;4.884;2023-08-12T10:30:48;21.40;99.90
15906;DHT22;8051;50.820;4.884;2023-08-12T10:33:17;21.00;99.90
15906;DHT22;8051;50.820;4.884;2023-08-12T10:35:46;20.60;99.90
15906;DHT22;8051;50.820;4.884;2023-08-12T10:38:17;20.40;99.90
15906;DHT22;8051;50.820;4.884;2023-08-12T10:40:45;20.00;99.90
15906;DHT22;8051;50.820;4.884;2023-08-12T10:43:13;20.00;99.90
15906;DHT22;8051;50.820;4.884;2023-08-12T10:45:47;20.00;99.90
15906;DHT22;8051;50.820;4.884;2023-08-12T10:48:22;20.10;99.90
15906;DHT22;8051;50.820;4.884;2023-08-12T10:50:53;20.30;99.90
15906;DHT22;8051;50.820;4.884;2023-08-12T10:53:23;20.60;99.90
15906;DHT22;8051;50.820;4.884;2023-08-12T10:55:55;20.90;99.90
15906;DHT22;8051;50.820;4.884;2023-08-12T10:58:28;20.90;99.90
15906;DHT22;8051;50.820;4.884;2023-08-12T11:00:56;21.10;99.90
15906;DHT22;8051;50.820;4.884;2023-08-12T11:03:27;21.50;99.90
15906;DHT22;8051;50.820;4.884;2023-08-12T11:05:59;22.10;99.90
15906;DHT22;8051;50.820;4.884;2023-08-12T11:08:27;22.20;99.90
15906;DHT22;8051;50.820;4.884;2023-08-12T11:10:55;22.30;99.90
15906;DHT22;8051;50.820;4.884;2023-08-12T11:13:27;22.50;99.90
15906;DHT22;8051;50.820;4.884;2023-08-12T11:16:06;22.50;99.90
15906;DHT22;8051;50.820;4.884;2023-08-12T11:18:36;22.60;99.90
15906;DHT22;8051;50.820;4.884;2023-08-12T11:21:04;22.60;99.90
15906;DHT22;8051;50.820;4.884;2023-08-12T11:23:31;22.90;99.90
15906;DHT22;8051;50.820;4.884;2023-08-12T11:26:00;22.70;99.90
15906;DHT22;8051;50.820;4.884;2023-08-12T11:28:28;22.50;99.90
15906;DHT22;8051;50.820;4.884;2023-08-12T11:30:56;22.40;99.90
15906;DHT22;8051;50.820;4.884;2023-08-12T11:33:25;22.30;99.90
15906;DHT22;8051;50.820;4.884;2023-08-12T11:35:54;22.00;99.90
15906;DHT22;8051;50.820;4.884;2023-08-12T11:38:22;21.80;99.90
15906;DHT22;8051;50.820;4.884;2023-08-12T11:40:50;21.80;99.90
15906;DHT22;8051;50.820;4.884;2023-08-12T11:43:21;21.70;99.90
15906;DHT22;8051;50.820;4.884;2023-08-12T11:45:48;21.70;99.90
15906;DHT22;8051;50.820;4.884;2023-08-12T11:48:16;21.80;99.90
15906;DHT22;8051;50.820;4.884;2023-08-12T11:50:43;22.00;99.90
15906;DHT22;8051;50.820;4.884;2023-08-12T11:53:13;22.10;99.90
15906;DHT22;8051;50.820;4.884;2023-08-12T11:55:40;22.10;99.90
15906;DHT22;8051;50.820;4.884;2023-08-12T11:58:08;22.10;99.90
15906;DHT22;8051;50.820;4.884;2023-08-12T12:00:35;22.10;99.90
15906;DHT22;8051;50.820;4.884;2023-08-12T12:03:04;22.00;99.90
15906;DHT22;8051;50.820;4.884;2023-08-12T12:05:32;22.10;99.90
15906;DHT22;8051;50.820;4.884;2023-08-12T12:08:00;22.10;99.90
15906;DHT22;8051;50.820;4.884;2023-08-12T12:10:32;22.20;99.90
15906;DHT22;8051;50.820;4.884;2023-08-12T12:13:02;22.00;99.90
15906;DHT22;8051;50.820;4.884;2023-08-12T12:15:30;22.10;99.90
15906;DHT22;8051;50.820;4.884;2023-08-12T12:17:58;22.20;99.90
15906;DHT22;8051;50.820;4.884;2023-08-12T12:20:25;22.30;99.90
15906;DHT22;8051;50.820;4.884;2023-08-12T12:22:55;22.30;99.90
15906;DHT22;8051;50.820;4.884;2023-08-12T12:25:23;22.30;99.90
15906;DHT22;8051;50.820;4.884;2023-08-12T12:27:53;22.60;99.90
15906;DHT22;8051;50.820;4.884;2023-08-12T12:30:21;22.80;99.90
15906;DHT22;8051;50.820;4.884;2023-08-12T12:32:48;22.70;99.90
15906;DHT22;8051;50.820;4.884;2023-08-12T12:35:17;22.80;99.90
15906;DHT22;8051;50.820;4.884;2023-08-12T12:37:45;22.90;99.90
15906;DHT22;8051;50.820;4.884;2023-08-12T12:40:12;22.80;99.90
15906;DHT22;8051;50.820;4.884;2023-08-12T12:42:39;23.00;99.90
15906;DHT22;8051;50.820;4.884;2023-08-12T12:45:09;23.10;99.90
15906;DHT22;8051;50.820;4.884;2023-08-12T12:47:37;23.10;99.90
15906;DHT22;8051;50.820;4.884;2023-08-12T12:50:05;23.00;99.90
15906;DHT22;8051;50.820;4.884;2023-08-12T12:52:33;23.10;99.90
15906;DHT22;8051;50.820;4.884;2023-08-12T12:55:01;23.10;99.90
15906;DHT22;8051;50.820;4.884;2023-08-12T12:57:30;23.20;99.90
15906;DHT22;8051;50.820;4.884;2023-08-12T12:59:57;23.50;99.90
15906;DHT22;8051;50.820;4.884;2023-08-12T13:02:26;23.60;99.90
15906;DHT22;8051;50.820;4.884;2023-08-12T13:04:54;23.60;99.90
15906;DHT22;8051;50.820;4.884;2023-08-12T13:07:21;23.70;99.90
15906;DHT22;8051;50.820;4.884;2023-08-12T13:09:49;23.80;99.90
15906;DHT22;8051;50.820;4.884;2023-08-12T13:12:16;24.10;99.90
15906;DHT22;8051;50.820;4.884;2023-08-12T13:14:44;24.30;99.90
15906;DHT22;8051;50.820;4.884;2023-08-12T13:17:11;24.40;99.90
15906;DHT22;8051;50.820;4.884;2023-08-12T13:19:40;24.50;99.90
15906;DHT22;8051;50.820;4.884;2023-08-12T13:22:07;24.60;99.90
15906;DHT22;8051;50.820;4.884;2023-08-12T13:24:35;24.60;99.90
15906;DHT22;8051;50.820;4.884;2023-08-12T13:27:02;24.60;99.90
15906;DHT22;8051;50.820;4.884;2023-08-12T13:29:30;24.70;99.90
15906;DHT22;8051;50.820;4.884;2023-08-12T13:31:57;24.60;99.90
15906;DHT22;8051;50.820;4.884;2023-08-12T13:34:25;24.40;99.90
15906;DHT22;8051;50.820;4.884;2023-08-12T13:36:54;24.10;99.90
15906;DHT22;8051;50.820;4.884;2023-08-12T13:39:22;24.30;99.90
15906;DHT22;8051;50.820;4.884;2023-08-12T13:41:49;24.50;99.90
15906;DHT22;8051;50.820;4.884;2023-08-12T13:44:17;24.80;99.90
15906;DHT22;8051;50.820;4.884;2023-08-12T13:46:44;24.90;99.90
15906;DHT22;8051;50.820;4.884;2023-08-12T13:49:12;24.80;99.90
15906;DHT22;8051;50.820;4.884;2023-08-12T13:51:39;24.60;99.90
15906;DHT22;8051;50.820;4.884;2023-08-12T13:54:08;24.80;99.90
15906;DHT22;8051;50.820;4.884;2023-08-12T13:56:35;24.50;99.90
15906;DHT22;8051;50.820;4.884;2023-08-12T13:59:03;24.20;99.90
15906;DHT22;8051;50.820;4.884;2023-08-12T14:01:31;23.80;99.90
15906;DHT22;8051;50.820;4.884;2023-08-12T14:03:58;23.60;99.90
15906;DHT22;8051;50.820;4.884;2023-08-12T14:06:26;23.70;99.90
15906;DHT22;8051;50.820;4.884;2023-08-12T14:08:53;23.50;99.90
15906;DHT22;8051;50.820;4.884;2023-08-12T14:11:22;23.70;99.90
15906;DHT22;8051;50.820;4.884;2023-08-12T14:13:50;23.90;99.90
15906;DHT22;8051;50.820;4.884;2023-08-12T14:16:17;23.90;99.90
15906;DHT22;8051;50.820;4.884;2023-08-12T14:18:44;24.10;99.90
15906;DHT22;8051;50.820;4.884;2023-08-12T14:21:12;24.20;99.90
15906;DHT22;8051;50.820;4.884;2023-08-12T14:23:39;24.40;99.90
15906;DHT22;8051;50.820;4.884;2023-08-12T14:26:07;24.80;99.90
15906;DHT22;8051;50.820;4.884;2023-08-12T14:28:36;25.10;99.90
15906;DHT22;8051;50.820;4.884;2023-08-12T14:31:03;25.10;99.90
15906;DHT22;8051;50.820;4.884;2023-08-12T14:33:30;25.20;99.90
15906;DHT22;8051;50.820;4.884;2023-08-12T14:35:58;25.10;99.90
15906;DHT22;8051;50.820;4.884;2023-08-12T14:38:25;24.80;99.90
15906;DHT22;8051;50.820;4.884;2023-08-12T14:40:53;24.90;99.90
15906;DHT22;8051;50.820;4.884;2023-08-12T14:43:20;24.80;99.90
15906;DHT22;8051;50.820;4.884;2023-08-12T14:45:49;24.60;99.90
15906;DHT22;8051;50.820;4.884;2023-08-12T14:48:17;24.70;99.90
15906;DHT22;8051;50.820;4.884;2023-08-12T14:50:45;24.90;99.90
15906;DHT22;8051;50.820;4.884;2023-08-12T14:53:12;24.80;99.90
15906;DHT22;8051;50.820;4.884;2023-08-12T14:55:41;24.80;99.90
15906;DHT22;8051;50.820;4.884;2023-08-12T14:58:08;24.80;99.90
15906;DHT22;8051;50.820;4.884;2023-08-12T15:00:36;24.60;99.90
15906;DHT22;8051;50.820;4.884;2023-08-12T15:03:05;24.60;99.90
15906;DHT22;8051;50.820;4.884;2023-08-12T15:05:32;24.60;99.90
15906;DHT22;8051;50.820;4.884;2023-08-12T15:08:00;24.60;99.90
15906;DHT22;8051;50.820;4.884;2023-08-12T15:10:27;24.60;99.90
15906;DHT22;8051;50.820;4.884;2023-08-12T15:12:55;24.70;99.90
15906;DHT22;8051;50.820;4.884;2023-08-12T15:15:22;24.80;99.90
15906;DHT22;8051;50.820;4.884;2023-08-12T15:17:50;25.00;99.90
15906;DHT22;8051;50.820;4.884;2023-08-12T15:20:19;25.00;99.90
15906;DHT22;8051;50.820;4.884;2023-08-12T15:22:46;24.90;99.90
15906;DHT22;8051;50.820;4.884;2023-08-12T15:25:14;25.00;99.90
15906;DHT22;8051;50.820;4.884;2023-08-12T15:27:41;25.10;99.90
15906;DHT22;8051;50.820;4.884;2023-08-12T15:30:10;25.20;99.90
15906;DHT22;8051;50.820;4.884;2023-08-12T15:32:37;25.30;99.90
15906;DHT22;8051;50.820;4.884;2023-08-12T15:35:06;25.50;99.90
15906;DHT22;8051;50.820;4.884;2023-08-12T15:37:37;25.60;99.90
15906;DHT22;8051;50.820;4.884;2023-08-12T15:40:06;25.60;99.90
15906;DHT22;8051;50.820;4.884;2023-08-12T15:42:34;25.40;99.90
15906;DHT22;8051;50.820;4.884;2023-08-12T15:45:02;25.40;99.90
15906;DHT22;8051;50.820;4.884;2023-08-12T15:47:30;25.50;99.90
15906;DHT22;8051;50.820;4.884;2023-08-12T15:49:58;25.80;99.90